createdAt,value
2018-06-21T00:01:44.510Z,99.90
2018-06-21T00:04:18.325Z,99.90
2018-06-21T00:06:52.085Z,99.90
2018-06-21T00:09:25.781Z,99.90
2018-06-21T00:11:59.584Z,99.90
2018-06-21T00:14:33.368Z,99.90
2018-06-21T00:17:07.095Z,99.90
2018-06-21T00:19:40.868Z,99.90
2018-06-21T00:22:14.569Z,99.90
2018-06-21T00:24:48.358Z,99.90
2018-06-21T00:27:22.249Z,99.90
2018-06-21T00:29:55.969Z,99.90
2018-06-21T00:32:29.769Z,99.90
2018-06-21T00:35:03.365Z,99.90
2018-06-21T00:37:37.246Z,99.90
2018-06-21T00:40:11.836Z,99.90
2018-06-21T00:42:45.464Z,99.90
2018-06-21T00:45:19.306Z,99.90
2018-06-21T00:47:52.916Z,99.90
2018-06-21T00:50:27.499Z,99.90
2018-06-21T00:53:01.255Z,99.90
2018-06-21T00:55:40.981Z,99.90
2018-06-21T00:58:14.774Z,99.90
2018-06-21T01:00:48.596Z,99.90
2018-06-21T01:03:22.480Z,99.90
2018-06-21T01:05:57.104Z,99.90
2018-06-21T01:08:30.656Z,99.90
2018-06-21T01:11:04.315Z,99.90
2018-06-21T01:13:38.937Z,99.90
2018-06-21T01:16:12.708Z,99.90
2018-06-21T01:18:46.449Z,99.90
2018-06-21T01:21:20.196Z,99.90
2018-06-21T01:23:54.767Z,99.90
2018-06-21T01:26:29.177Z,99.90
2018-06-21T01:29:02.952Z,99.90
2018-06-21T01:31:36.592Z,99.90
2018-06-21T01:34:10.263Z,99.90
2018-06-21T01:36:44.032Z,99.90
2018-06-21T01:39:18.619Z,99.90
2018-06-21T01:41:52.408Z,99.90
2018-06-21T01:44:27.026Z,99.90
2018-06-21T01:47:00.696Z,99.90
2018-06-21T01:49:34.510Z,99.90
2018-06-21T01:52:09.079Z,99.90
2018-06-21T01:54:44.439Z,99.90
2018-06-21T01:57:18.208Z,99.90
2018-06-21T01:59:51.971Z,99.90
2018-06-21T02:02:26.541Z,99.90
2018-06-21T02:05:01.000Z,99.90
2018-06-21T02:07:35.530Z,99.90
2018-06-21T02:10:09.328Z,99.90
2018-06-21T02:12:43.929Z,99.90
2018-06-21T02:15:18.467Z,99.90
2018-06-21T02:17:52.170Z,99.90
2018-06-21T02:20:26.572Z,99.90
2018-06-21T02:23:00.445Z,99.90
2018-06-21T02:25:34.208Z,99.90
2018-06-21T02:28:08.144Z,99.90
2018-06-21T02:30:41.999Z,99.90
2018-06-21T02:33:16.520Z,99.90
2018-06-21T02:35:50.246Z,99.90
2018-06-21T02:38:23.884Z,99.90
2018-06-21T02:40:58.359Z,99.90
2018-06-21T02:43:32.139Z,99.90
2018-06-21T02:46:06.801Z,99.90
2018-06-21T02:48:41.405Z,99.90
2018-06-21T02:51:15.166Z,99.90
2018-06-21T02:53:48.956Z,99.90
2018-06-21T02:56:23.513Z,99.90
2018-06-21T02:58:58.064Z,99.90
2018-06-21T03:01:31.820Z,99.90
2018-06-21T03:04:05.681Z,99.90
2018-06-21T03:06:40.232Z,99.90
2018-06-21T03:09:14.058Z,99.90
2018-06-21T03:11:47.685Z,99.90
2018-06-21T03:14:21.460Z,99.90
2018-06-21T03:16:55.146Z,99.90
2018-06-21T03:19:28.956Z,99.90
2018-06-21T03:22:03.502Z,99.90
2018-06-21T03:24:37.192Z,99.90
2018-06-21T03:27:10.944Z,99.90
2018-06-21T03:29:44.705Z,99.90
2018-06-21T03:32:18.452Z,99.90
2018-06-21T03:34:52.224Z,99.90
2018-06-21T03:37:26.081Z,99.90
2018-06-21T03:40:00.427Z,99.90
2018-06-21T03:42:35.047Z,99.90
2018-06-21T03:45:08.825Z,99.90
2018-06-21T03:47:42.548Z,99.90
2018-06-21T03:50:16.208Z,99.90
2018-06-21T03:52:50.775Z,99.90
2018-06-21T03:55:24.816Z,99.90
2018-06-21T03:57:58.707Z,99.90
2018-06-21T04:00:32.380Z,99.90
2018-06-21T04:03:06.082Z,99.90
2018-06-21T04:05:39.801Z,99.90
2018-06-21T04:08:13.529Z,99.90
2018-06-21T04:10:47.984Z,99.90
2018-06-21T04:13:21.718Z,99.90
2018-06-21T04:15:56.427Z,99.90
2018-06-21T04:18:30.132Z,99.90
2018-06-21T04:21:03.885Z,99.90
2018-06-21T04:23:37.598Z,99.90
2018-06-21T04:26:11.377Z,99.90
2018-06-21T04:28:45.308Z,99.90
2018-06-21T04:31:19.116Z,99.90
2018-06-21T04:33:52.877Z,99.90
2018-06-21T04:36:26.454Z,99.90
2018-06-21T04:39:01.009Z,99.90
2018-06-21T04:41:34.871Z,99.90
2018-06-21T04:44:09.441Z,99.90
2018-06-21T04:46:43.240Z,99.90
2018-06-21T04:49:16.965Z,99.90
2018-06-21T04:51:50.708Z,99.90
2018-06-21T04:54:24.355Z,99.90
2018-06-21T04:56:58.028Z,99.90
2018-06-21T04:59:31.769Z,99.90
2018-06-21T05:02:06.331Z,99.90
2018-06-21T05:04:40.848Z,99.90
2018-06-21T05:07:14.539Z,99.90
2018-06-21T05:09:48.327Z,99.90
2018-06-21T05:12:22.080Z,99.90
2018-06-21T05:14:55.674Z,99.90
2018-06-21T05:17:29.516Z,99.90
2018-06-21T05:20:03.387Z,99.90
2018-06-21T05:22:37.948Z,99.90
2018-06-21T05:25:11.717Z,99.90
2018-06-21T05:27:45.488Z,99.90
2018-06-21T05:30:19.288Z,99.90
2018-06-21T05:32:53.012Z,99.90
2018-06-21T05:35:27.546Z,99.90
2018-06-21T05:38:01.929Z,99.90
2018-06-21T05:40:35.693Z,99.90
2018-06-21T05:43:09.472Z,99.90
2018-06-21T05:45:44.082Z,99.90
2018-06-21T05:48:17.931Z,99.90
2018-06-21T05:50:51.825Z,99.90
2018-06-21T05:53:26.344Z,99.90
2018-06-21T05:56:01.153Z,99.90
2018-06-21T05:58:34.825Z,99.90
2018-06-21T06:01:08.563Z,99.90
2018-06-21T06:03:43.178Z,99.90
2018-06-21T06:06:17.803Z,99.90
2018-06-21T06:08:51.757Z,99.90
2018-06-21T06:11:25.691Z,99.90
2018-06-21T06:13:59.467Z,99.90
2018-06-21T06:16:33.273Z,99.90
2018-06-21T06:19:07.166Z,99.90
2018-06-21T06:21:40.932Z,99.90
2018-06-21T06:24:14.736Z,99.90
2018-06-21T06:26:48.464Z,99.90
2018-06-21T06:29:23.003Z,99.90
2018-06-21T06:31:57.409Z,99.90
2018-06-21T06:34:31.175Z,99.90
2018-06-21T06:37:04.911Z,99.90
2018-06-21T06:39:38.793Z,99.90
2018-06-21T06:42:12.632Z,99.90
2018-06-21T06:44:46.547Z,99.90
2018-06-21T06:47:20.463Z,99.90
2018-06-21T06:49:55.033Z,99.90
2018-06-21T06:52:28.617Z,99.90
2018-06-21T06:55:02.313Z,99.90
2018-06-21T06:57:36.060Z,99.90
2018-06-21T07:00:10.486Z,99.90
2018-06-21T07:02:45.015Z,99.90
2018-06-21T07:05:18.644Z,99.90
2018-06-21T07:07:53.228Z,99.90
2018-06-21T07:10:27.770Z,99.90
2018-06-21T07:13:01.381Z,99.90
2018-06-21T07:15:35.905Z,99.90
2018-06-21T07:18:10.303Z,99.90
2018-06-21T07:20:44.835Z,99.90
2018-06-21T07:23:18.654Z,99.90
2018-06-21T07:25:52.264Z,99.90
2018-06-21T07:28:26.156Z,99.90
2018-06-21T07:30:59.876Z,99.90
2018-06-21T07:33:33.781Z,99.90
2018-06-21T07:36:07.625Z,99.90
2018-06-21T07:38:41.455Z,99.90
2018-06-21T07:41:15.284Z,99.90
2018-06-21T07:43:48.869Z,99.90
2018-06-21T07:46:22.594Z,98.40
2018-06-21T07:48:56.405Z,97.60
2018-06-21T07:51:30.223Z,94.50
2018-06-21T07:54:04.857Z,93.90
2018-06-21T07:56:39.352Z,91.30
2018-06-21T07:59:13.916Z,91.50
2018-06-21T08:01:48.424Z,91.60
2018-06-21T08:04:22.243Z,91.60
2018-06-21T08:06:56.832Z,87.60
2018-06-21T08:09:30.621Z,87.40
2018-06-21T08:12:04.351Z,81.50
2018-06-21T08:14:38.968Z,72.50
2018-06-21T08:17:13.465Z,70.60
2018-06-21T08:19:47.270Z,70.50
2018-06-21T08:22:21.898Z,67.30
2018-06-21T08:25:04.236Z,67.20
2018-06-21T08:27:37.889Z,67.20
2018-06-21T08:30:11.817Z,64.20
2018-06-21T08:32:45.621Z,62.50
2018-06-21T08:35:19.398Z,64.30
2018-06-21T08:37:53.119Z,67.50
2018-06-21T08:40:27.793Z,82.10
2018-06-21T08:43:02.327Z,88.50
2018-06-21T08:45:35.936Z,88.50
2018-06-21T08:48:09.760Z,90.50
2018-06-21T08:50:45.086Z,83.90
2018-06-21T08:53:18.906Z,83.90
2018-06-21T08:55:52.511Z,80.80
2018-06-21T08:58:26.441Z,78.10
2018-06-21T09:01:00.856Z,63.60
2018-06-21T09:03:34.502Z,62.70
2018-06-21T09:06:08.906Z,61.40
2018-06-21T09:08:42.676Z,61.30
2018-06-21T09:11:16.518Z,56.30
2018-06-21T09:13:50.352Z,54.50
2018-06-21T09:16:24.204Z,52.80
2018-06-21T09:18:58.086Z,50.60
2018-06-21T09:21:31.966Z,49.70
2018-06-21T09:24:06.401Z,51.00
2018-06-21T09:26:40.124Z,51.00
2018-06-21T09:29:13.968Z,49.80
2018-06-21T09:31:47.675Z,49.80
2018-06-21T09:34:21.578Z,48.00
2018-06-21T09:36:55.361Z,47.80
2018-06-21T09:52:50.486Z,51.80
2018-06-21T09:55:25.003Z,52.00
2018-06-21T09:57:58.810Z,51.90
2018-06-21T10:00:33.452Z,51.20
2018-06-21T10:03:07.170Z,51.00
2018-06-21T10:05:41.043Z,49.00
2018-06-21T10:08:14.818Z,48.20
2018-06-21T10:10:48.612Z,48.80
2018-06-21T10:13:22.418Z,47.90
2018-06-21T10:15:55.998Z,47.00
2018-06-21T10:18:31.235Z,46.30
2018-06-21T10:21:05.064Z,46.30
2018-06-21T10:23:38.951Z,46.60
2018-06-21T10:26:13.437Z,44.80
2018-06-21T10:28:47.192Z,44.80
2018-06-21T10:31:21.093Z,46.90
2018-06-21T10:33:54.765Z,46.30
2018-06-21T10:36:28.597Z,45.70
2018-06-21T10:39:02.508Z,45.60
2018-06-21T10:41:36.249Z,46.50
2018-06-21T10:44:10.073Z,47.10
2018-06-21T10:46:45.242Z,48.40
2018-06-21T10:49:19.084Z,48.40
2018-06-21T10:51:52.872Z,49.40
2018-06-21T10:54:26.643Z,49.30
2018-06-21T10:57:00.472Z,50.40
2018-06-21T10:59:34.099Z,49.80
2018-06-21T11:02:07.878Z,47.00
2018-06-21T11:04:42.481Z,48.10
2018-06-21T11:07:17.476Z,48.00
2018-06-21T11:09:51.111Z,48.40
2018-06-21T11:12:24.900Z,49.30
2018-06-21T11:14:58.588Z,49.50
2018-06-21T11:17:33.073Z,49.60
2018-06-21T11:20:07.650Z,48.00
2018-06-21T11:22:41.465Z,48.00
2018-06-21T11:25:15.230Z,49.40
2018-06-21T11:27:49.022Z,48.70
2018-06-21T11:30:22.744Z,48.80
2018-06-21T11:32:56.481Z,49.10
2018-06-21T11:35:30.308Z,50.90
2018-06-21T11:38:04.141Z,50.80
2018-06-21T11:40:37.948Z,51.90
2018-06-21T11:43:11.677Z,52.80
2018-06-21T11:45:45.468Z,51.30
2018-06-21T11:48:20.208Z,51.30
2018-06-21T11:50:54.669Z,52.30
2018-06-21T11:53:28.376Z,52.20
2018-06-21T11:56:02.123Z,51.20
2018-06-21T11:58:36.630Z,50.10
2018-06-21T12:01:10.417Z,50.10
2018-06-21T12:03:44.136Z,49.80
2018-06-21T12:06:17.949Z,49.60
2018-06-21T12:08:51.557Z,47.40
2018-06-21T12:11:25.355Z,47.40
2018-06-21T12:13:59.926Z,47.70
2018-06-21T12:16:34.054Z,47.40
2018-06-21T12:19:08.517Z,48.90
2018-06-21T12:21:42.240Z,48.90
2018-06-21T12:24:16.063Z,49.20
2018-06-21T12:26:49.858Z,49.70
2018-06-21T12:29:23.582Z,46.10
2018-06-21T12:31:57.599Z,46.10
2018-06-21T12:34:31.388Z,47.50
2018-06-21T12:37:05.173Z,47.90
2018-06-21T12:39:39.886Z,47.50
2018-06-21T12:42:13.731Z,47.50
2018-06-21T12:44:47.540Z,46.20
2018-06-21T12:47:22.018Z,46.40
2018-06-21T12:49:56.600Z,47.30
2018-06-21T12:52:31.037Z,47.90
2018-06-21T12:55:04.752Z,48.00
2018-06-21T12:57:38.536Z,48.60
2018-06-21T13:00:12.248Z,49.10
2018-06-21T13:02:46.891Z,50.00
2018-06-21T13:05:21.555Z,49.80
2018-06-21T13:07:55.218Z,49.80
2018-06-21T13:13:28.025Z,52.80
2018-06-21T13:16:01.817Z,52.80
2018-06-21T13:18:35.604Z,53.70
2018-06-21T13:21:09.435Z,54.40
2018-06-21T13:23:43.140Z,53.10
2018-06-21T13:26:17.632Z,50.80
2018-06-21T13:28:51.272Z,50.70
2018-06-21T13:31:25.092Z,51.50
2018-06-21T13:33:58.933Z,52.70
2018-06-21T13:36:32.789Z,54.70
2018-06-21T13:39:06.579Z,58.10
2018-06-21T13:41:40.521Z,57.60
2018-06-21T13:44:14.188Z,57.70
2018-06-21T13:46:48.730Z,56.70
2018-06-21T13:49:23.278Z,55.00
2018-06-21T13:51:57.656Z,53.10
2018-06-21T13:54:31.585Z,53.10
2018-06-21T13:57:05.193Z,52.20
2018-06-21T13:59:39.075Z,52.10
2018-06-21T14:02:12.963Z,50.80
2018-06-21T14:04:46.791Z,51.20
2018-06-21T14:07:20.649Z,53.60
2018-06-21T14:09:56.776Z,55.60
2018-06-21T14:12:36.176Z,55.60
2018-06-21T14:15:14.147Z,58.00
2018-06-21T14:17:54.780Z,57.70
2018-06-21T14:20:31.312Z,58.90
2018-06-21T14:23:05.518Z,72.30
2018-06-21T14:25:39.476Z,85.90
2018-06-21T14:28:15.170Z,94.40
2018-06-21T14:30:51.370Z,94.40
2018-06-21T14:33:27.647Z,95.50
2018-06-21T14:36:05.461Z,96.80
2018-06-21T14:38:39.325Z,96.80
2018-06-21T14:41:14.281Z,97.10
2018-06-21T14:43:49.296Z,97.50
2018-06-21T14:46:26.058Z,98.30
2018-06-21T14:49:03.013Z,98.20
2018-06-21T14:51:40.841Z,97.20
2018-06-21T14:54:18.752Z,98.80
2018-06-21T14:56:54.835Z,98.80
2018-06-21T14:59:32.382Z,98.60
2018-06-21T15:02:09.850Z,99.30
2018-06-21T15:04:44.627Z,99.90
2018-06-21T15:07:20.549Z,99.90
2018-06-21T15:09:58.039Z,99.60
2018-06-21T15:12:32.348Z,99.40
2018-06-21T15:15:08.255Z,99.00
2018-06-21T15:17:50.931Z,99.00
2018-06-21T15:20:27.620Z,99.10
2018-06-21T15:23:04.436Z,98.90
2018-06-21T15:25:38.410Z,99.30
2018-06-21T15:28:15.237Z,99.90
2018-06-21T15:30:52.364Z,99.20
2018-06-21T15:33:29.262Z,99.20
2018-06-21T15:36:05.083Z,98.80
2018-06-21T15:38:41.543Z,99.30
2018-06-21T15:41:18.148Z,98.70
2018-06-21T15:43:56.934Z,97.60
2018-06-21T15:46:35.996Z,96.80
2018-06-21T15:49:14.037Z,95.90
2018-06-21T15:51:51.278Z,95.50
2018-06-21T15:54:29.797Z,95.30
2018-06-21T15:57:05.742Z,95.50
2018-06-21T15:59:41.513Z,95.20
2018-06-21T16:02:21.961Z,97.40
2018-06-21T16:04:59.682Z,97.40
2018-06-21T16:07:36.245Z,98.00
2018-06-21T16:10:12.089Z,98.70
2018-06-21T16:12:50.915Z,98.70
2018-06-21T16:15:26.569Z,98.60
2018-06-21T16:18:09.609Z,98.70
2018-06-21T16:20:45.296Z,98.60
2018-06-21T16:23:21.187Z,98.90
2018-06-21T16:25:57.642Z,98.50
2018-06-21T16:28:34.811Z,98.80
2018-06-21T16:31:12.330Z,99.60
2018-06-21T16:33:49.244Z,99.60
2018-06-21T16:36:25.543Z,99.90
2018-06-21T16:39:05.108Z,99.90
2018-06-21T16:41:43.038Z,99.90
2018-06-21T16:44:20.383Z,99.40
2018-06-21T16:46:56.254Z,99.50
2018-06-21T16:49:32.111Z,99.90
2018-06-21T16:52:07.050Z,99.90
2018-06-21T16:54:42.442Z,99.90
2018-06-21T16:57:19.240Z,99.90
2018-06-21T16:59:55.520Z,99.90
2018-06-21T17:02:37.832Z,99.90
2018-06-21T17:05:14.404Z,99.90
2018-06-21T17:07:49.249Z,99.90
2018-06-21T17:10:26.252Z,99.90
2018-06-21T17:13:02.189Z,99.00
2018-06-21T17:15:38.625Z,99.80
2018-06-21T17:18:13.486Z,99.70
2018-06-21T17:20:49.112Z,89.80
2018-06-21T17:23:27.315Z,89.30
2018-06-21T17:26:06.166Z,89.70
2018-06-21T17:28:42.429Z,89.10
2018-06-21T17:31:18.362Z,80.30
2018-06-21T17:33:55.330Z,74.30
2018-06-21T17:36:34.534Z,66.50
2018-06-21T17:39:15.034Z,73.40
2018-06-21T17:41:52.407Z,63.50
2018-06-21T17:44:29.801Z,61.80
2018-06-21T17:47:04.437Z,61.50
2018-06-21T17:49:43.127Z,61.50
2018-06-21T17:52:19.817Z,61.80
2018-06-21T17:54:56.622Z,59.20
2018-06-21T17:57:32.788Z,60.00
2018-06-21T18:00:08.952Z,65.40
2018-06-21T18:02:47.443Z,65.00
2018-06-21T18:05:21.899Z,59.50
2018-06-21T18:08:00.129Z,57.70
2018-06-21T18:10:38.072Z,54.80
2018-06-21T18:13:14.116Z,54.20
2018-06-21T18:15:50.110Z,53.60
2018-06-21T18:18:25.311Z,51.30
2018-06-21T18:21:02.030Z,50.00
2018-06-21T18:23:37.776Z,49.90
2018-06-21T18:26:14.815Z,48.50
2018-06-21T18:28:52.484Z,48.20
2018-06-21T18:31:28.848Z,48.10
2018-06-21T18:34:02.924Z,47.80
2018-06-21T18:36:39.996Z,46.00
2018-06-21T18:39:14.910Z,46.80
2018-06-21T18:41:52.233Z,49.20
2018-06-21T18:44:34.502Z,44.50
2018-06-21T18:47:18.022Z,45.40
2018-06-21T18:49:54.723Z,42.40
2018-06-21T18:52:32.747Z,43.30
2018-06-21T18:55:13.722Z,43.20
2018-06-21T18:57:50.285Z,43.70
2018-06-21T19:00:25.376Z,46.60
2018-06-21T19:03:00.325Z,45.80
2018-06-21T19:05:35.499Z,43.20
2018-06-21T19:08:11.789Z,45.30
2018-06-21T19:13:53.795Z,44.90
2018-06-21T19:16:32.437Z,43.60
2018-06-21T19:19:09.174Z,42.70
2018-06-21T19:21:51.392Z,46.10
2018-06-21T19:24:29.065Z,45.20
2018-06-21T19:27:07.195Z,43.80
2018-06-21T19:29:43.556Z,46.60
2018-06-21T19:32:20.950Z,46.50
2018-06-21T19:34:57.500Z,44.50
2018-06-21T19:37:33.490Z,44.50
2018-06-21T19:40:12.314Z,45.70
2018-06-21T19:42:49.373Z,45.70
2018-06-21T19:48:21.038Z,46.00
2018-06-21T19:50:57.750Z,43.90
2018-06-21T19:53:35.584Z,43.90
2018-06-21T19:56:11.562Z,46.20
2018-06-21T19:58:47.830Z,44.80
2018-06-21T20:01:26.143Z,44.80
2018-06-21T20:04:03.334Z,45.80
2018-06-21T20:06:40.329Z,46.40
2018-06-21T20:09:16.054Z,46.30
2018-06-21T20:11:53.242Z,46.60
2018-06-21T20:14:29.346Z,50.60
2018-06-21T20:17:05.978Z,48.30
2018-06-21T20:19:44.714Z,44.90
2018-06-21T20:22:18.900Z,44.80
2018-06-21T20:24:57.268Z,46.10
2018-06-21T20:27:35.726Z,46.00
2018-06-21T20:30:11.635Z,45.90
2018-06-21T20:32:47.931Z,45.50
2018-06-21T20:35:26.828Z,48.20
2018-06-21T20:38:01.812Z,49.10
2018-06-21T20:40:37.864Z,45.60
2018-06-21T20:43:14.542Z,46.60
2018-06-21T20:45:51.522Z,46.60
2018-06-21T20:48:26.405Z,48.50
2018-06-21T20:51:02.269Z,49.60
2018-06-21T20:53:39.198Z,46.70
2018-06-21T20:56:18.621Z,46.20
2018-06-21T20:58:54.783Z,46.10
2018-06-21T21:01:35.667Z,48.60
2018-06-21T21:04:13.098Z,49.00
2018-06-21T21:06:52.466Z,48.40
2018-06-21T21:09:28.314Z,48.70
2018-06-21T21:12:04.799Z,48.90
2018-06-21T21:14:42.602Z,48.60
2018-06-21T21:17:19.274Z,49.50
2018-06-21T21:19:58.704Z,48.60
2018-06-21T21:22:34.534Z,48.50
2018-06-21T21:25:11.254Z,49.60
2018-06-21T21:27:48.378Z,54.20
2018-06-21T21:30:25.352Z,53.20
2018-06-21T21:33:01.663Z,50.10
2018-06-21T21:35:37.216Z,50.90
2018-06-21T21:38:14.605Z,51.10
2018-06-21T21:40:52.046Z,50.60
2018-06-21T21:43:28.050Z,50.60
2018-06-21T21:46:04.820Z,52.70
2018-06-21T21:48:42.391Z,56.40
2018-06-21T21:51:18.138Z,56.40
2018-06-21T21:53:55.251Z,51.90
2018-06-21T21:56:35.481Z,51.40
2018-06-21T21:59:13.386Z,50.40
2018-06-21T22:02:01.221Z,56.90
2018-06-21T22:04:35.868Z,58.50
2018-06-21T22:07:15.817Z,50.20
2018-06-21T22:09:54.230Z,49.60
2018-06-21T22:12:37.285Z,50.60
2018-06-21T22:15:15.872Z,54.50
2018-06-21T22:17:49.966Z,51.40
2018-06-21T22:20:26.042Z,53.50
2018-06-21T22:23:02.203Z,53.60
2018-06-21T22:25:39.485Z,54.00
2018-06-21T22:28:18.615Z,53.00
2018-06-21T22:31:00.508Z,52.90
2018-06-21T22:33:36.416Z,54.10
2018-06-21T22:36:15.439Z,51.60
2018-06-21T22:38:50.808Z,51.60
2018-06-21T22:41:27.900Z,52.90
2018-06-21T22:44:05.611Z,55.10
2018-06-21T22:46:42.285Z,54.80
2018-06-21T22:49:20.279Z,54.80
2018-06-21T22:51:58.689Z,52.70
2018-06-21T22:54:40.493Z,51.80
2018-06-21T22:57:17.676Z,51.70
2018-06-21T22:59:55.679Z,53.40
2018-06-21T23:02:40.759Z,54.30
2018-06-21T23:05:17.264Z,54.30
2018-06-21T23:07:53.789Z,54.10
2018-06-21T23:10:28.274Z,54.60
2018-06-21T23:13:02.061Z,54.60
2018-06-21T23:15:35.878Z,56.80
2018-06-21T23:18:09.678Z,56.10
2018-06-21T23:20:43.421Z,56.40
2018-06-21T23:23:18.242Z,58.30
2018-06-21T23:25:52.670Z,57.30
2018-06-21T23:28:26.350Z,57.20
2018-06-21T23:31:00.957Z,58.10
2018-06-21T23:33:35.471Z,59.70
2018-06-21T23:36:09.189Z,59.00
2018-06-21T23:38:43.617Z,58.60
2018-06-21T23:41:17.474Z,58.60
2018-06-21T23:43:51.351Z,60.80
2018-06-21T23:46:25.118Z,60.50
2018-06-21T23:48:59.552Z,61.80
2018-06-21T23:51:33.274Z,61.10
2018-06-21T23:54:07.073Z,66.10
2018-06-21T23:56:40.748Z,65.10
2018-06-21T23:59:14.575Z,76.80
